Parker, Illinois
Current Conditions -  °F | °C
As of 1:53 PM on Wednesday 17 Dec 2014 (Local Time) from KMTO Reporting Station
Overcast Overcast  
Wind Chill: 17°   Ceiling: 1300
Heat Index: 26°   Visibility: 10mi
Dew Point: 20°   Wind: 9mph
Humidity: 78%   Direction: 310°NW
Pressure: 30.26"   Gusts: NA
Location:  39.4316°N, 88.0561°W
Report Text: KMTO 171953Z AUTO 31008KT 10SM OVC013 M03/M07 A3026 RMK AO2 SLP257 T10331067
Loading
Personal Weather Stations






























Interactive Weather Map New forecast layout! Learn more

10-Day Weather Forecast

Advertisements
Track Severe Weather on mobile